sensor_id;sensor_type;location;lat;lon;timestamp;P1;durP1;ratioP1;P2;durP2;ratioP2
11303;SDS011;5707;49.588;12.148;2023-07-13T00:00:28;3.55;;;3.25;;
11303;SDS011;5707;49.588;12.148;2023-07-13T00:02:53;3.80;;;3.50;;
11303;SDS011;5707;49.588;12.148;2023-07-13T00:05:22;3.72;;;3.42;;
11303;SDS011;5707;49.588;12.148;2023-07-13T00:07:49;3.20;;;3.00;;
11303;SDS011;5707;49.588;12.148;2023-07-13T00:10:15;5.15;;;3.05;;
11303;SDS011;5707;49.588;12.148;2023-07-13T00:12:42;4.40;;;2.80;;
11303;SDS011;5707;49.588;12.148;2023-07-13T00:15:15;3.13;;;2.83;;
11303;SDS011;5707;49.588;12.148;2023-07-13T00:17:47;2.90;;;2.70;;
11303;SDS011;5707;49.588;12.148;2023-07-13T00:20:17;3.30;;;3.10;;
11303;SDS011;5707;49.588;12.148;2023-07-13T00:22:42;5.78;;;3.25;;
11303;SDS011;5707;49.588;12.148;2023-07-13T00:25:11;3.83;;;2.83;;
11303;SDS011;5707;49.588;12.148;2023-07-13T00:27:37;4.80;;;2.72;;
11303;SDS011;5707;49.588;12.148;2023-07-13T00:30:03;4.03;;;3.03;;
11303;SDS011;5707;49.588;12.148;2023-07-13T00:32:29;2.38;;;2.22;;
11303;SDS011;5707;49.588;12.148;2023-07-13T00:34:55;2.75;;;2.55;;
11303;SDS011;5707;49.588;12.148;2023-07-13T00:37:21;4.10;;;2.70;;
11303;SDS011;5707;49.588;12.148;2023-07-13T00:39:47;3.03;;;2.83;;
11303;SDS011;5707;49.588;12.148;2023-07-13T00:42:12;3.08;;;2.78;;
11303;SDS011;5707;49.588;12.148;2023-07-13T00:44:38;3.10;;;2.80;;
11303;SDS011;5707;49.588;12.148;2023-07-13T00:47:04;2.67;;;2.42;;
11303;SDS011;5707;49.588;12.148;2023-07-13T00:49:31;3.08;;;2.80;;
11303;SDS011;5707;49.588;12.148;2023-07-13T00:51:59;3.35;;;2.50;;
11303;SDS011;5707;49.588;12.148;2023-07-13T00:54:30;2.83;;;2.55;;
11303;SDS011;5707;49.588;12.148;2023-07-13T00:57:19;2.85;;;2.63;;
11303;SDS011;5707;49.588;12.148;2023-07-13T00:59:47;2.45;;;2.25;;
11303;SDS011;5707;49.588;12.148;2023-07-13T01:02:20;2.60;;;2.40;;
11303;SDS011;5707;49.588;12.148;2023-07-13T01:04:46;3.20;;;3.00;;
11303;SDS011;5707;49.588;12.148;2023-07-13T01:07:13;3.63;;;2.95;;
11303;SDS011;5707;49.588;12.148;2023-07-13T01:09:39;2.45;;;2.22;;
11303;SDS011;5707;49.588;12.148;2023-07-13T01:12:05;2.75;;;2.55;;
11303;SDS011;5707;49.588;12.148;2023-07-13T01:14:31;4.30;;;2.63;;
11303;SDS011;5707;49.588;12.148;2023-07-13T01:16:56;4.35;;;2.80;;
11303;SDS011;5707;49.588;12.148;2023-07-13T01:22:19;3.35;;;3.03;;
11303;SDS011;5707;49.588;12.148;2023-07-13T01:24:50;4.22;;;2.67;;
11303;SDS011;5707;49.588;12.148;2023-07-13T01:27:19;3.15;;;2.95;;
11303;SDS011;5707;49.588;12.148;2023-07-13T01:29:48;3.25;;;2.88;;
11303;SDS011;5707;49.588;12.148;2023-07-13T01:32:21;2.90;;;2.70;;
11303;SDS011;5707;49.588;12.148;2023-07-13T01:34:49;3.05;;;2.85;;
11303;SDS011;5707;49.588;12.148;2023-07-13T01:37:16;3.67;;;3.20;;
11303;SDS011;5707;49.588;12.148;2023-07-13T01:39:42;3.00;;;2.70;;
11303;SDS011;5707;49.588;12.148;2023-07-13T01:42:07;3.50;;;2.60;;
11303;SDS011;5707;49.588;12.148;2023-07-13T01:44:33;3.10;;;2.80;;
11303;SDS011;5707;49.588;12.148;2023-07-13T01:46:58;3.65;;;3.00;;
11303;SDS011;5707;49.588;12.148;2023-07-13T01:49:24;3.22;;;2.83;;
11303;SDS011;5707;49.588;12.148;2023-07-13T01:51:50;2.78;;;2.50;;
11303;SDS011;5707;49.588;12.148;2023-07-13T01:54:15;5.03;;;2.63;;
11303;SDS011;5707;49.588;12.148;2023-07-13T01:56:41;2.85;;;2.65;;
11303;SDS011;5707;49.588;12.148;2023-07-13T01:59:07;3.80;;;3.00;;
11303;SDS011;5707;49.588;12.148;2023-07-13T02:01:33;2.63;;;2.38;;
11303;SDS011;5707;49.588;12.148;2023-07-13T02:03:58;2.30;;;2.20;;
11303;SDS011;5707;49.588;12.148;2023-07-13T02:06:24;2.90;;;2.70;;
11303;SDS011;5707;49.588;12.148;2023-07-13T02:08:50;2.65;;;2.45;;
11303;SDS011;5707;49.588;12.148;2023-07-13T02:11:15;2.65;;;2.38;;
11303;SDS011;5707;49.588;12.148;2023-07-13T02:13:41;2.38;;;2.17;;
11303;SDS011;5707;49.588;12.148;2023-07-13T02:16:07;2.47;;;2.28;;
11303;SDS011;5707;49.588;12.148;2023-07-13T02:18:32;4.05;;;2.25;;
11303;SDS011;5707;49.588;12.148;2023-07-13T02:20:58;2.83;;;2.45;;
11303;SDS011;5707;49.588;12.148;2023-07-13T02:23:23;2.55;;;2.40;;
11303;SDS011;5707;49.588;12.148;2023-07-13T02:25:49;2.45;;;2.25;;
11303;SDS011;5707;49.588;12.148;2023-07-13T02:28:20;2.70;;;2.50;;
11303;SDS011;5707;49.588;12.148;2023-07-13T02:30:45;2.90;;;2.70;;
11303;SDS011;5707;49.588;12.148;2023-07-13T02:33:11;3.17;;;2.88;;
11303;SDS011;5707;49.588;12.148;2023-07-13T02:35:36;3.10;;;2.80;;
11303;SDS011;5707;49.588;12.148;2023-07-13T02:38:02;3.13;;;2.60;;
11303;SDS011;5707;49.588;12.148;2023-07-13T02:40:27;2.75;;;2.50;;
11303;SDS011;5707;49.588;12.148;2023-07-13T02:42:53;2.95;;;2.75;;
11303;SDS011;5707;49.588;12.148;2023-07-13T02:45:18;3.08;;;2.30;;
11303;SDS011;5707;49.588;12.148;2023-07-13T02:47:44;2.78;;;2.58;;
11303;SDS011;5707;49.588;12.148;2023-07-13T02:50:10;4.22;;;2.42;;
11303;SDS011;5707;49.588;12.148;2023-07-13T02:52:35;3.75;;;2.20;;
11303;SDS011;5707;49.588;12.148;2023-07-13T02:55:01;2.53;;;2.35;;
11303;SDS011;5707;49.588;12.148;2023-07-13T02:57:26;2.75;;;2.47;;
11303;SDS011;5707;49.588;12.148;2023-07-13T02:59:53;3.50;;;2.53;;
11303;SDS011;5707;49.588;12.148;2023-07-13T03:02:19;3.03;;;2.72;;
11303;SDS011;5707;49.588;12.148;2023-07-13T03:04:44;2.42;;;2.28;;
11303;SDS011;5707;49.588;12.148;2023-07-13T03:07:10;2.83;;;2.45;;
11303;SDS011;5707;49.588;12.148;2023-07-13T03:09:35;2.75;;;2.30;;
11303;SDS011;5707;49.588;12.148;2023-07-13T03:12:01;2.67;;;2.47;;
11303;SDS011;5707;49.588;12.148;2023-07-13T03:14:27;2.42;;;2.22;;
11303;SDS011;5707;49.588;12.148;2023-07-13T03:16:53;4.18;;;2.60;;
11303;SDS011;5707;49.588;12.148;2023-07-13T03:19:18;2.40;;;2.20;;
11303;SDS011;5707;49.588;12.148;2023-07-13T03:21:44;3.50;;;2.22;;
11303;SDS011;5707;49.588;12.148;2023-07-13T03:24:10;2.30;;;2.10;;
11303;SDS011;5707;49.588;12.148;2023-07-13T03:26:35;2.28;;;2.08;;
11303;SDS011;5707;49.588;12.148;2023-07-13T03:29:01;4.35;;;1.92;;
11303;SDS011;5707;49.588;12.148;2023-07-13T03:31:28;3.22;;;2.00;;
11303;SDS011;5707;49.588;12.148;2023-07-13T03:33:55;2.25;;;2.05;;
11303;SDS011;5707;49.588;12.148;2023-07-13T03:36:23;3.58;;;2.20;;
11303;SDS011;5707;49.588;12.148;2023-07-13T03:38:51;1.92;;;1.80;;
11303;SDS011;5707;49.588;12.148;2023-07-13T03:41:18;3.28;;;2.08;;
11303;SDS011;5707;49.588;12.148;2023-07-13T03:43:45;2.00;;;1.90;;
11303;SDS011;5707;49.588;12.148;2023-07-13T03:46:12;1.90;;;1.80;;
11303;SDS011;5707;49.588;12.148;2023-07-13T03:48:38;5.47;;;2.00;;
11303;SDS011;5707;49.588;12.148;2023-07-13T03:51:05;3.08;;;2.10;;
11303;SDS011;5707;49.588;12.148;2023-07-13T03:53:31;2.17;;;2.08;;
11303;SDS011;5707;49.588;12.148;2023-07-13T03:55:56;3.00;;;2.05;;
11303;SDS011;5707;49.588;12.148;2023-07-13T03:58:23;2.30;;;2.10;;
11303;SDS011;5707;49.588;12.148;2023-07-13T04:00:51;3.08;;;2.33;;
11303;SDS011;5707;49.588;12.148;2023-07-13T04:03:16;2.28;;;2.10;;
11303;SDS011;5707;49.588;12.148;2023-07-13T04:05:42;1.73;;;1.60;;
11303;SDS011;5707;49.588;12.148;2023-07-13T04:08:07;2.80;;;1.80;;
11303;SDS011;5707;49.588;12.148;2023-07-13T04:10:33;2.30;;;1.80;;
11303;SDS011;5707;49.588;12.148;2023-07-13T04:12:58;1.90;;;1.80;;
11303;SDS011;5707;49.588;12.148;2023-07-13T04:15:24;1.80;;;1.70;;
11303;SDS011;5707;49.588;12.148;2023-07-13T04:17:49;2.60;;;2.00;;
11303;SDS011;5707;49.588;12.148;2023-07-13T04:20:15;2.83;;;1.90;;
11303;SDS011;5707;49.588;12.148;2023-07-13T04:22:41;2.47;;;2.00;;
11303;SDS011;5707;49.588;12.148;2023-07-13T04:25:06;2.10;;;1.90;;
11303;SDS011;5707;49.588;12.148;2023-07-13T04:27:32;2.05;;;1.95;;
11303;SDS011;5707;49.588;12.148;2023-07-13T04:29:58;2.33;;;1.95;;
11303;SDS011;5707;49.588;12.148;2023-07-13T04:32:23;4.38;;;2.20;;
11303;SDS011;5707;49.588;12.148;2023-07-13T04:34:49;1.90;;;1.80;;
11303;SDS011;5707;49.588;12.148;2023-07-13T04:37:18;2.08;;;1.98;;
11303;SDS011;5707;49.588;12.148;2023-07-13T04:39:43;2.10;;;2.00;;
11303;SDS011;5707;49.588;12.148;2023-07-13T04:42:09;3.97;;;1.83;;
11303;SDS011;5707;49.588;12.148;2023-07-13T04:44:34;2.50;;;2.30;;
11303;SDS011;5707;49.588;12.148;2023-07-13T04:47:00;3.72;;;2.53;;
11303;SDS011;5707;49.588;12.148;2023-07-13T04:49:25;2.15;;;1.70;;
11303;SDS011;5707;49.588;12.148;2023-07-13T04:51:51;2.08;;;1.52;;
11303;SDS011;5707;49.588;12.148;2023-07-13T04:54:16;2.63;;;1.58;;
11303;SDS011;5707;49.588;12.148;2023-07-13T04:56:42;2.08;;;1.70;;
11303;SDS011;5707;49.588;12.148;2023-07-13T04:59:07;2.13;;;1.48;;
11303;SDS011;5707;49.588;12.148;2023-07-13T05:01:33;1.80;;;1.48;;
11303;SDS011;5707;49.588;12.148;2023-07-13T05:03:59;1.55;;;1.45;;
11303;SDS011;5707;49.588;12.148;2023-07-13T05:06:24;1.80;;;1.70;;
11303;SDS011;5707;49.588;12.148;2023-07-13T05:08:50;2.13;;;1.42;;
11303;SDS011;5707;49.588;12.148;2023-07-13T05:11:15;1.50;;;1.35;;
11303;SDS011;5707;49.588;12.148;2023-07-13T05:13:43;1.58;;;1.48;;
11303;SDS011;5707;49.588;12.148;2023-07-13T05:16:08;2.17;;;1.38;;
11303;SDS011;5707;49.588;12.148;2023-07-13T05:18:34;2.58;;;1.40;;
11303;SDS011;5707;49.588;12.148;2023-07-13T05:21:02;3.28;;;1.40;;
11303;SDS011;5707;49.588;12.148;2023-07-13T05:23:30;1.08;;;1.05;;
11303;SDS011;5707;49.588;12.148;2023-07-13T05:25:56;3.60;;;1.70;;
11303;SDS011;5707;49.588;12.148;2023-07-13T05:28:23;1.65;;;1.30;;
11303;SDS011;5707;49.588;12.148;2023-07-13T05:30:49;1.65;;;1.02;;
11303;SDS011;5707;49.588;12.148;2023-07-13T05:33:15;1.83;;;1.30;;
11303;SDS011;5707;49.588;12.148;2023-07-13T05:35:41;1.30;;;1.20;;
11303;SDS011;5707;49.588;12.148;2023-07-13T05:38:06;1.73;;;1.13;;
11303;SDS011;5707;49.588;12.148;2023-07-13T05:40:32;2.30;;;1.30;;
11303;SDS011;5707;49.588;12.148;2023-07-13T05:42:58;1.60;;;1.50;;
11303;SDS011;5707;49.588;12.148;2023-07-13T05:45:23;1.88;;;1.15;;
11303;SDS011;5707;49.588;12.148;2023-07-13T05:47:49;1.95;;;1.23;;
11303;SDS011;5707;49.588;12.148;2023-07-13T05:50:15;1.75;;;1.48;;
11303;SDS011;5707;49.588;12.148;2023-07-13T05:52:41;1.30;;;1.20;;
11303;SDS011;5707;49.588;12.148;2023-07-13T05:55:06;1.38;;;1.20;;
11303;SDS011;5707;49.588;12.148;2023-07-13T05:57:32;1.30;;;1.13;;
11303;SDS011;5707;49.588;12.148;2023-07-13T05:59:58;1.35;;;1.20;;
11303;SDS011;5707;49.588;12.148;2023-07-13T06:02:23;1.40;;;1.20;;
11303;SDS011;5707;49.588;12.148;2023-07-13T06:04:49;1.08;;;0.98;;
11303;SDS011;5707;49.588;12.148;2023-07-13T06:07:14;1.30;;;1.10;;
11303;SDS011;5707;49.588;12.148;2023-07-13T06:09:40;1.30;;;0.93;;
11303;SDS011;5707;49.588;12.148;2023-07-13T06:12:06;1.15;;;1.00;;
11303;SDS011;5707;49.588;12.148;2023-07-13T06:14:32;3.40;;;1.20;;
11303;SDS011;5707;49.588;12.148;2023-07-13T06:16:57;1.70;;;1.10;;
11303;SDS011;5707;49.588;12.148;2023-07-13T06:19:23;3.10;;;1.25;;
11303;SDS011;5707;49.588;12.148;2023-07-13T06:21:48;2.13;;;1.05;;
11303;SDS011;5707;49.588;12.148;2023-07-13T06:24:14;0.70;;;0.60;;
11303;SDS011;5707;49.588;12.148;2023-07-13T06:26:39;1.75;;;1.00;;
11303;SDS011;5707;49.588;12.148;2023-07-13T06:29:05;0.88;;;0.88;;
11303;SDS011;5707;49.588;12.148;2023-07-13T06:31:31;2.60;;;1.10;;
11303;SDS011;5707;49.588;12.148;2023-07-13T06:33:56;1.48;;;1.08;;
11303;SDS011;5707;49.588;12.148;2023-07-13T06:36:22;3.92;;;0.93;;
11303;SDS011;5707;49.588;12.148;2023-07-13T06:38:47;2.05;;;1.00;;
11303;SDS011;5707;49.588;12.148;2023-07-13T06:41:13;1.10;;;1.00;;
11303;SDS011;5707;49.588;12.148;2023-07-13T06:43:39;1.38;;;1.02;;
11303;SDS011;5707;49.588;12.148;2023-07-13T06:46:04;2.17;;;0.90;;
11303;SDS011;5707;49.588;12.148;2023-07-13T06:48:30;2.40;;;1.15;;
11303;SDS011;5707;49.588;12.148;2023-07-13T06:50:55;2.67;;;1.00;;
11303;SDS011;5707;49.588;12.148;2023-07-13T06:53:21;1.05;;;0.98;;
11303;SDS011;5707;49.588;12.148;2023-07-13T06:55:47;1.50;;;1.00;;
11303;SDS011;5707;49.588;12.148;2023-07-13T06:58:14;2.60;;;1.50;;
11303;SDS011;5707;49.588;12.148;2023-07-13T07:00:40;2.90;;;1.10;;
11303;SDS011;5707;49.588;12.148;2023-07-13T07:03:06;1.02;;;0.73;;
11303;SDS011;5707;49.588;12.148;2023-07-13T07:05:32;1.20;;;0.88;;
11303;SDS011;5707;49.588;12.148;2023-07-13T07:07:58;1.02;;;0.90;;
11303;SDS011;5707;49.588;12.148;2023-07-13T07:10:23;3.72;;;0.98;;
11303;SDS011;5707;49.588;12.148;2023-07-13T07:12:49;0.90;;;0.90;;
11303;SDS011;5707;49.588;12.148;2023-07-13T07:15:15;3.88;;;1.25;;
11303;SDS011;5707;49.588;12.148;2023-07-13T07:17:41;1.20;;;0.90;;
11303;SDS011;5707;49.588;12.148;2023-07-13T07:20:07;1.80;;;0.98;;
11303;SDS011;5707;49.588;12.148;2023-07-13T07:22:33;2.53;;;0.85;;
11303;SDS011;5707;49.588;12.148;2023-07-13T07:24:59;2.85;;;1.00;;
11303;SDS011;5707;49.588;12.148;2023-07-13T07:27:24;1.63;;;0.88;;
11303;SDS011;5707;49.588;12.148;2023-07-13T07:29:51;2.25;;;0.82;;
11303;SDS011;5707;49.588;12.148;2023-07-13T07:32:16;2.45;;;1.15;;
11303;SDS011;5707;49.588;12.148;2023-07-13T07:34:42;0.88;;;0.80;;
11303;SDS011;5707;49.588;12.148;2023-07-13T07:37:12;2.47;;;1.08;;
11303;SDS011;5707;49.588;12.148;2023-07-13T07:39:38;0.80;;;0.75;;
11303;SDS011;5707;49.588;12.148;2023-07-13T07:42:04;1.55;;;0.80;;
11303;SDS011;5707;49.588;12.148;2023-07-13T07:44:31;1.15;;;0.90;;
11303;SDS011;5707;49.588;12.148;2023-07-13T07:46:57;3.17;;;0.90;;
11303;SDS011;5707;49.588;12.148;2023-07-13T07:49:23;1.88;;;1.10;;
11303;SDS011;5707;49.588;12.148;2023-07-13T07:51:49;4.60;;;1.08;;
11303;SDS011;5707;49.588;12.148;2023-07-13T07:54:15;1.85;;;0.70;;
11303;SDS011;5707;49.588;12.148;2023-07-13T07:56:41;1.70;;;0.88;;
11303;SDS011;5707;49.588;12.148;2023-07-13T07:59:06;2.28;;;0.73;;
11303;SDS011;5707;49.588;12.148;2023-07-13T08:01:32;4.85;;;1.02;;
11303;SDS011;5707;49.588;12.148;2023-07-13T08:03:57;4.05;;;0.77;;
11303;SDS011;5707;49.588;12.148;2023-07-13T08:06:23;0.90;;;0.90;;
11303;SDS011;5707;49.588;12.148;2023-07-13T08:08:49;1.92;;;0.90;;
11303;SDS011;5707;49.588;12.148;2023-07-13T08:11:15;1.40;;;0.80;;
11303;SDS011;5707;49.588;12.148;2023-07-13T08:13:41;3.08;;;1.00;;
11303;SDS011;5707;49.588;12.148;2023-07-13T08:16:06;1.27;;;0.85;;
11303;SDS011;5707;49.588;12.148;2023-07-13T08:18:32;3.13;;;0.80;;
11303;SDS011;5707;49.588;12.148;2023-07-13T08:20:58;1.30;;;0.70;;
11303;SDS011;5707;49.588;12.148;2023-07-13T08:23:24;1.85;;;1.08;;
11303;SDS011;5707;49.588;12.148;2023-07-13T08:25:53;3.50;;;1.00;;
11303;SDS011;5707;49.588;12.148;2023-07-13T08:28:20;2.92;;;1.05;;
11303;SDS011;5707;49.588;12.148;2023-07-13T08:30:46;1.17;;;0.90;;
11303;SDS011;5707;49.588;12.148;2023-07-13T08:33:14;0.80;;;0.60;;
11303;SDS011;5707;49.588;12.148;2023-07-13T08:35:47;2.65;;;1.02;;
11303;SDS011;5707;49.588;12.148;2023-07-13T08:38:13;1.88;;;0.90;;
11303;SDS011;5707;49.588;12.148;2023-07-13T08:40:40;1.17;;;0.75;;
11303;SDS011;5707;49.588;12.148;2023-07-13T08:43:08;0.88;;;0.80;;
11303;SDS011;5707;49.588;12.148;2023-07-13T08:45:44;1.10;;;0.75;;
11303;SDS011;5707;49.588;12.148;2023-07-13T08:50:47;1.70;;;1.00;;
11303;SDS011;5707;49.588;12.148;2023-07-13T08:53:21;1.17;;;0.90;;
11303;SDS011;5707;49.588;12.148;2023-07-13T08:55:50;1.60;;;0.68;;
11303;SDS011;5707;49.588;12.148;2023-07-13T08:58:19;1.15;;;0.80;;
11303;SDS011;5707;49.588;12.148;2023-07-13T09:00:49;0.80;;;0.75;;
11303;SDS011;5707;49.588;12.148;2023-07-13T09:03:42;2.30;;;0.85;;
11303;SDS011;5707;49.588;12.148;2023-07-13T09:06:15;5.82;;;0.70;;
11303;SDS011;5707;49.588;12.148;2023-07-13T09:08:55;1.75;;;0.82;;
11303;SDS011;5707;49.588;12.148;2023-07-13T09:11:33;1.10;;;0.65;;
11303;SDS011;5707;49.588;12.148;2023-07-13T09:14:25;0.70;;;0.70;;
11303;SDS011;5707;49.588;12.148;2023-07-13T09:16:51;0.85;;;0.60;;
11303;SDS011;5707;49.588;12.148;2023-07-13T09:19:21;1.95;;;0.80;;
11303;SDS011;5707;49.588;12.148;2023-07-13T09:21:51;4.07;;;1.00;;
11303;SDS011;5707;49.588;12.148;2023-07-13T09:24:36;1.85;;;0.70;;
11303;SDS011;5707;49.588;12.148;2023-07-13T09:27:15;1.42;;;0.75;;
11303;SDS011;5707;49.588;12.148;2023-07-13T09:29:46;2.65;;;0.90;;
11303;SDS011;5707;49.588;12.148;2023-07-13T09:32:16;1.15;;;0.75;;
11303;SDS011;5707;49.588;12.148;2023-07-13T09:34:50;2.53;;;0.70;;
11303;SDS011;5707;49.588;12.148;2023-07-13T09:37:20;1.25;;;1.05;;
11303;SDS011;5707;49.588;12.148;2023-07-13T09:39:47;2.47;;;0.60;;
11303;SDS011;5707;49.588;12.148;2023-07-13T09:42:17;1.63;;;0.70;;
11303;SDS011;5707;49.588;12.148;2023-07-13T09:47:28;1.38;;;0.68;;
11303;SDS011;5707;49.588;12.148;2023-07-13T09:50:06;1.02;;;0.70;;
11303;SDS011;5707;49.588;12.148;2023-07-13T09:52:44;1.17;;;0.77;;
11303;SDS011;5707;49.588;12.148;2023-07-13T10:00:42;0.90;;;0.75;;
11303;SDS011;5707;49.588;12.148;2023-07-13T10:03:19;1.65;;;0.77;;
11303;SDS011;5707;49.588;12.148;2023-07-13T10:05:49;1.45;;;0.70;;
11303;SDS011;5707;49.588;12.148;2023-07-13T10:08:27;2.08;;;1.05;;
11303;SDS011;5707;49.588;12.148;2023-07-13T10:10:59;2.30;;;0.73;;
11303;SDS011;5707;49.588;12.148;2023-07-13T10:13:32;2.17;;;0.70;;
11303;SDS011;5707;49.588;12.148;2023-07-13T10:16:02;0.95;;;0.60;;
11303;SDS011;5707;49.588;12.148;2023-07-13T10:18:38;2.20;;;1.00;;
11303;SDS011;5707;49.588;12.148;2023-07-13T10:21:15;1.77;;;0.88;;
11303;SDS011;5707;49.588;12.148;2023-07-13T10:23:59;1.67;;;0.82;;
11303;SDS011;5707;49.588;12.148;2023-07-13T10:26:31;1.67;;;1.00;;
11303;SDS011;5707;49.588;12.148;2023-07-13T10:29:02;3.50;;;0.98;;
11303;SDS011;5707;49.588;12.148;2023-07-13T10:31:40;2.65;;;0.70;;
11303;SDS011;5707;49.588;12.148;2023-07-13T10:34:09;1.42;;;0.65;;
11303;SDS011;5707;49.588;12.148;2023-07-13T10:36:40;1.38;;;0.70;;
11303;SDS011;5707;49.588;12.148;2023-07-13T10:39:22;0.88;;;0.70;;
11303;SDS011;5707;49.588;12.148;2023-07-13T10:41:52;1.75;;;0.90;;
11303;SDS011;5707;49.588;12.148;2023-07-13T10:44:30;1.33;;;0.68;;
11303;SDS011;5707;49.588;12.148;2023-07-13T10:47:15;1.05;;;0.80;;
11303;SDS011;5707;49.588;12.148;2023-07-13T10:49:43;1.25;;;0.60;;
11303;SDS011;5707;49.588;12.148;2023-07-13T10:55:11;0.88;;;0.65;;
11303;SDS011;5707;49.588;12.148;2023-07-13T10:58:11;1.67;;;0.80;;
11303;SDS011;5707;49.588;12.148;2023-07-13T11:00:49;1.30;;;0.60;;
11303;SDS011;5707;49.588;12.148;2023-07-13T11:03:37;0.85;;;0.55;;
11303;SDS011;5707;49.588;12.148;2023-07-13T11:06:42;0.55;;;0.50;;
11303;SDS011;5707;49.588;12.148;2023-07-13T11:12:01;1.98;;;0.70;;
11303;SDS011;5707;49.588;12.148;2023-07-13T11:14:41;1.67;;;0.93;;
11303;SDS011;5707;49.588;12.148;2023-07-13T11:19:53;1.00;;;0.70;;
11303;SDS011;5707;49.588;12.148;2023-07-13T11:22:50;1.60;;;0.75;;
11303;SDS011;5707;49.588;12.148;2023-07-13T11:27:52;1.42;;;0.50;;
11303;SDS011;5707;49.588;12.148;2023-07-13T11:30:32;1.55;;;0.75;;
11303;SDS011;5707;49.588;12.148;2023-07-13T11:38:48;0.77;;;0.60;;
11303;SDS011;5707;49.588;12.148;2023-07-13T11:41:25;1.63;;;0.77;;
11303;SDS011;5707;49.588;12.148;2023-07-13T11:44:14;1.02;;;0.70;;
11303;SDS011;5707;49.588;12.148;2023-07-13T11:46:48;1.20;;;0.60;;
11303;SDS011;5707;49.588;12.148;2023-07-13T11:49:19;1.17;;;0.55;;
11303;SDS011;5707;49.588;12.148;2023-07-13T11:51:47;2.13;;;0.60;;
11303;SDS011;5707;49.588;12.148;2023-07-13T11:54:22;0.60;;;0.55;;
11303;SDS011;5707;49.588;12.148;2023-07-13T11:57:03;0.60;;;0.60;;
11303;SDS011;5707;49.588;12.148;2023-07-13T11:59:43;0.93;;;0.57;;
11303;SDS011;5707;49.588;12.148;2023-07-13T12:02:14;0.98;;;0.50;;
11303;SDS011;5707;49.588;12.148;2023-07-13T12:04:47;0.60;;;0.60;;
11303;SDS011;5707;49.588;12.148;2023-07-13T12:07:16;0.95;;;0.47;;
11303;SDS011;5707;49.588;12.148;2023-07-13T12:09:43;0.63;;;0.50;;
11303;SDS011;5707;49.588;12.148;2023-07-13T12:12:10;0.70;;;0.47;;
11303;SDS011;5707;49.588;12.148;2023-07-13T12:14:41;0.95;;;0.57;;
11303;SDS011;5707;49.588;12.148;2023-07-13T12:17:16;1.48;;;0.68;;
11303;SDS011;5707;49.588;12.148;2023-07-13T12:19:46;0.88;;;0.60;;
11303;SDS011;5707;49.588;12.148;2023-07-13T12:22:13;0.45;;;0.43;;
11303;SDS011;5707;49.588;12.148;2023-07-13T12:24:40;0.80;;;0.60;;
11303;SDS011;5707;49.588;12.148;2023-07-13T12:27:15;0.95;;;0.50;;
11303;SDS011;5707;49.588;12.148;2023-07-13T12:30:36;1.35;;;0.70;;
11303;SDS011;5707;49.588;12.148;2023-07-13T12:33:01;0.82;;;0.50;;
11303;SDS011;5707;49.588;12.148;2023-07-13T12:35:39;0.50;;;0.43;;
11303;SDS011;5707;49.588;12.148;2023-07-13T12:38:10;1.35;;;0.50;;
11303;SDS011;5707;49.588;12.148;2023-07-13T12:40:37;2.15;;;0.60;;
11303;SDS011;5707;49.588;12.148;2023-07-13T12:43:05;0.65;;;0.40;;
11303;SDS011;5707;49.588;12.148;2023-07-13T12:45:38;2.05;;;0.50;;
11303;SDS011;5707;49.588;12.148;2023-07-13T12:48:19;2.08;;;0.60;;
11303;SDS011;5707;49.588;12.148;2023-07-13T12:50:49;1.65;;;0.77;;
11303;SDS011;5707;49.588;12.148;2023-07-13T12:53:21;0.90;;;0.73;;
11303;SDS011;5707;49.588;12.148;2023-07-13T12:55:55;2.30;;;0.77;;
11303;SDS011;5707;49.588;12.148;2023-07-13T13:01:09;0.80;;;0.60;;
11303;SDS011;5707;49.588;12.148;2023-07-13T13:08:43;1.55;;;0.70;;
11303;SDS011;5707;49.588;12.148;2023-07-13T13:11:10;0.70;;;0.70;;
11303;SDS011;5707;49.588;12.148;2023-07-13T13:13:36;0.80;;;0.50;;
11303;SDS011;5707;49.588;12.148;2023-07-13T13:16:04;2.55;;;0.63;;
11303;SDS011;5707;49.588;12.148;2023-07-13T13:18:38;0.85;;;0.50;;
11303;SDS011;5707;49.588;12.148;2023-07-13T13:21:03;1.50;;;0.75;;
11303;SDS011;5707;49.588;12.148;2023-07-13T13:23:30;0.77;;;0.55;;
11303;SDS011;5707;49.588;12.148;2023-07-13T13:25:56;2.42;;;0.68;;
11303;SDS011;5707;49.588;12.148;2023-07-13T13:28:22;1.65;;;0.82;;
11303;SDS011;5707;49.588;12.148;2023-07-13T13:30:48;0.60;;;0.60;;
11303;SDS011;5707;49.588;12.148;2023-07-13T13:33:16;1.15;;;0.60;;
11303;SDS011;5707;49.588;12.148;2023-07-13T13:35:43;0.60;;;0.45;;
11303;SDS011;5707;49.588;12.148;2023-07-13T13:38:10;2.25;;;0.70;;
11303;SDS011;5707;49.588;12.148;2023-07-13T13:40:39;1.08;;;0.60;;
11303;SDS011;5707;49.588;12.148;2023-07-13T13:43:40;2.30;;;0.70;;
11303;SDS011;5707;49.588;12.148;2023-07-13T13:45:58;0.90;;;0.70;;
11303;SDS011;5707;49.588;12.148;2023-07-13T13:48:34;0.52;;;0.50;;
11303;SDS011;5707;49.588;12.148;2023-07-13T13:51:01;1.23;;;0.90;;
11303;SDS011;5707;49.588;12.148;2023-07-13T13:53:37;2.20;;;0.60;;
11303;SDS011;5707;49.588;12.148;2023-07-13T13:56:03;1.23;;;0.47;;
11303;SDS011;5707;49.588;12.148;2023-07-13T13:58:29;1.08;;;0.70;;
11303;SDS011;5707;49.588;12.148;2023-07-13T14:00:55;4.70;;;0.88;;
11303;SDS011;5707;49.588;12.148;2023-07-13T14:03:23;1.30;;;0.82;;
11303;SDS011;5707;49.588;12.148;2023-07-13T14:05:49;0.75;;;0.63;;
11303;SDS011;5707;49.588;12.148;2023-07-13T14:08:18;1.30;;;0.80;;
11303;SDS011;5707;49.588;12.148;2023-07-13T14:10:49;1.42;;;0.63;;
11303;SDS011;5707;49.588;12.148;2023-07-13T14:13:18;1.35;;;0.52;;
11303;SDS011;5707;49.588;12.148;2023-07-13T14:15:48;2.28;;;0.57;;
11303;SDS011;5707;49.588;12.148;2023-07-13T14:18:14;1.38;;;0.90;;
11303;SDS011;5707;49.588;12.148;2023-07-13T14:20:43;0.73;;;0.60;;
11303;SDS011;5707;49.588;12.148;2023-07-13T14:23:11;1.65;;;0.68;;
11303;SDS011;5707;49.588;12.148;2023-07-13T14:25:38;1.10;;;0.80;;
11303;SDS011;5707;49.588;12.148;2023-07-13T14:28:10;1.58;;;0.90;;
11303;SDS011;5707;49.588;12.148;2023-07-13T14:30:45;2.17;;;0.63;;
11303;SDS011;5707;49.588;12.148;2023-07-13T14:33:12;2.78;;;0.82;;
11303;SDS011;5707;49.588;12.148;2023-07-13T14:35:37;1.20;;;0.80;;
11303;SDS011;5707;49.588;12.148;2023-07-13T14:38:03;1.90;;;0.90;;
11303;SDS011;5707;49.588;12.148;2023-07-13T14:40:30;1.25;;;0.60;;
11303;SDS011;5707;49.588;12.148;2023-07-13T14:42:57;2.95;;;1.05;;
11303;SDS011;5707;49.588;12.148;2023-07-13T14:45:23;2.35;;;0.65;;
11303;SDS011;5707;49.588;12.148;2023-07-13T14:47:49;1.00;;;0.90;;
11303;SDS011;5707;49.588;12.148;2023-07-13T14:50:19;2.05;;;0.80;;
11303;SDS011;5707;49.588;12.148;2023-07-13T14:52:48;2.33;;;0.68;;
11303;SDS011;5707;49.588;12.148;2023-07-13T14:55:15;3.17;;;0.73;;
11303;SDS011;5707;49.588;12.148;2023-07-13T14:57:42;2.92;;;0.70;;
11303;SDS011;5707;49.588;12.148;2023-07-13T15:00:18;3.80;;;1.10;;
11303;SDS011;5707;49.588;12.148;2023-07-13T15:02:49;1.00;;;0.57;;
11303;SDS011;5707;49.588;12.148;2023-07-13T15:05:19;1.63;;;0.60;;
11303;SDS011;5707;49.588;12.148;2023-07-13T15:07:48;1.23;;;0.73;;
11303;SDS011;5707;49.588;12.148;2023-07-13T15:10:19;0.90;;;0.75;;
11303;SDS011;5707;49.588;12.148;2023-07-13T15:12:51;1.63;;;0.90;;
11303;SDS011;5707;49.588;12.148;2023-07-13T15:15:18;0.95;;;0.60;;
11303;SDS011;5707;49.588;12.148;2023-07-13T15:17:44;1.08;;;0.70;;
11303;SDS011;5707;49.588;12.148;2023-07-13T15:22:46;0.80;;;0.60;;
11303;SDS011;5707;49.588;12.148;2023-07-13T15:25:14;3.42;;;0.70;;
11303;SDS011;5707;49.588;12.148;2023-07-13T15:27:42;1.95;;;1.00;;
11303;SDS011;5707;49.588;12.148;2023-07-13T15:30:07;1.25;;;0.70;;
11303;SDS011;5707;49.588;12.148;2023-07-13T15:32:34;1.17;;;0.60;;
11303;SDS011;5707;49.588;12.148;2023-07-13T15:34:59;0.57;;;0.57;;
11303;SDS011;5707;49.588;12.148;2023-07-13T15:37:25;0.70;;;0.70;;